createdAt,value
2023-02-02T00:01:30.385Z,99975.69
2023-02-02T00:04:07.794Z,99979.91
2023-02-02T00:06:35.598Z,99984.22
2023-02-02T00:09:12.394Z,99985.97
2023-02-02T00:11:42.492Z,99983.28
2023-02-02T00:14:21.118Z,99981.59
2023-02-02T00:16:56.888Z,99980.69
2023-02-02T00:19:26.662Z,99978.06
2023-02-02T00:21:54.904Z,99983.28
2023-02-02T00:24:22.179Z,99989.41
2023-02-02T00:26:53.187Z,99987.59
2023-02-02T00:29:22.300Z,99980.63
2023-02-02T00:31:49.501Z,99984.09
2023-02-02T00:34:17.103Z,99980.56
2023-02-02T00:36:44.602Z,99975.41
2023-02-02T00:39:15.821Z,99979.72
2023-02-02T00:41:42.415Z,99974.47
2023-02-02T00:44:27.304Z,99980.56
2023-02-02T00:46:53.723Z,99978.00
2023-02-02T00:49:20.513Z,99979.72
2023-02-02T00:51:47.003Z,99986.72
2023-02-02T00:54:14.425Z,99984.09
2023-02-02T00:56:41.740Z,99984.94
2023-02-02T00:59:08.403Z,99992.78
2023-02-02T01:01:34.911Z,99990.22
2023-02-02T01:04:01.977Z,99990.22
2023-02-02T01:06:28.707Z,99999.00
2023-02-02T01:08:55.368Z,100000.69
2023-02-02T01:11:21.904Z,100002.47
2023-02-02T01:13:48.427Z,100001.59
2023-02-02T01:16:15.927Z,100000.78
2023-02-02T01:18:42.829Z,99994.69
2023-02-02T01:21:11.812Z,100006.91
2023-02-02T01:23:39.065Z,100004.28
2023-02-02T01:26:08.516Z,100011.25
2023-02-02T01:28:35.680Z,100006.84
2023-02-02T01:31:08.044Z,100014.75
2023-02-02T01:33:34.635Z,100012.88
2023-02-02T01:36:08.321Z,100018.16
2023-02-02T01:38:35.114Z,100014.63
2023-02-02T01:41:04.611Z,100016.34
2023-02-02T01:43:58.754Z,100022.53
2023-02-02T01:46:29.088Z,100024.13
2023-02-02T01:49:01.591Z,100025.84
2023-02-02T01:51:44.138Z,100021.56
2023-02-02T01:54:18.474Z,100025.84
2023-02-02T01:56:51.268Z,100030.19
2023-02-02T01:59:18.801Z,100036.19
2023-02-02T02:01:47.745Z,100037.88
2023-02-02T02:04:14.676Z,100029.16
2023-02-02T02:06:42.543Z,100030.00
2023-02-02T02:09:09.129Z,100031.63
2023-02-02T02:11:36.588Z,100035.13
2023-02-02T02:14:24.753Z,100042.91
2023-02-02T02:17:20.608Z,100049.00
2023-02-02T02:20:28.626Z,100047.19
2023-02-02T02:23:31.629Z,100053.19
2023-02-02T02:26:35.323Z,100043.53
2023-02-02T02:29:32.416Z,100040.00
2023-02-02T02:32:09.224Z,100053.81
2023-02-02T02:34:38.528Z,100057.25
2023-02-02T02:37:17.605Z,100053.78
2023-02-02T02:40:05.517Z,100058.16
2023-02-02T02:42:37.857Z,100055.31
2023-02-02T02:45:06.967Z,100052.63
2023-02-02T02:47:35.445Z,100049.91
2023-02-02T02:50:02.034Z,100049.78
2023-02-02T02:52:28.630Z,100052.34
2023-02-02T02:54:57.639Z,100053.16
2023-02-02T02:57:49.841Z,100051.41
2023-02-02T03:00:53.039Z,100053.94
2023-02-02T03:03:37.817Z,100045.97
2023-02-02T03:06:04.331Z,100051.00
2023-02-02T03:08:46.567Z,100042.38
2023-02-02T03:11:15.659Z,100046.53
2023-02-02T03:13:43.331Z,100053.41
2023-02-02T03:16:10.884Z,100055.09
2023-02-02T03:18:38.038Z,100044.56
2023-02-02T03:21:04.665Z,100040.97
2023-02-02T03:23:31.213Z,100054.03
2023-02-02T03:25:57.864Z,100049.56
2023-02-02T03:28:25.264Z,100043.34
2023-02-02T03:30:54.671Z,100039.78
2023-02-02T03:33:21.826Z,100046.59
2023-02-02T03:35:48.294Z,100056.09
2023-02-02T03:38:14.806Z,100054.22
2023-02-02T03:40:41.579Z,100049.75
2023-02-02T03:43:08.251Z,100056.66
2023-02-02T03:45:40.677Z,100061.75
2023-02-02T03:48:07.359Z,100056.41
2023-02-02T03:50:33.885Z,100055.41
2023-02-02T03:53:00.324Z,100067.53
2023-02-02T03:55:26.945Z,100063.94
2023-02-02T03:57:53.490Z,100069.06
2023-02-02T04:00:20.453Z,100070.78
2023-02-02T04:02:46.946Z,100072.41
2023-02-02T04:05:13.417Z,100077.59
2023-02-02T04:07:40.343Z,100076.66
2023-02-02T04:10:07.177Z,100072.25
2023-02-02T04:12:33.693Z,100075.63
2023-02-02T04:15:00.207Z,100077.38
2023-02-02T04:17:26.595Z,100062.47
2023-02-02T04:19:58.096Z,100080.75
2023-02-02T04:22:25.920Z,100085.13
2023-02-02T04:24:52.552Z,100085.09
2023-02-02T04:27:19.648Z,100089.50
2023-02-02T04:29:46.213Z,100093.81
2023-02-02T04:32:15.173Z,100092.13
2023-02-02T04:34:41.984Z,100086.88
2023-02-02T04:37:08.673Z,100092.94
2023-02-02T04:39:35.222Z,100092.22
2023-02-02T04:42:01.896Z,100087.97
2023-02-02T04:44:28.630Z,100090.63
2023-02-02T04:46:55.067Z,100094.25
2023-02-02T04:49:21.981Z,100095.09
2023-02-02T04:51:50.302Z,100094.34
2023-02-02T04:57:00.618Z,100092.72
2023-02-02T04:59:28.877Z,100093.75
2023-02-02T05:01:56.626Z,100094.66
2023-02-02T05:04:22.985Z,100097.34
2023-02-02T05:06:49.305Z,100097.47
2023-02-02T05:09:15.696Z,100103.63
2023-02-02T05:11:44.421Z,100094.06
2023-02-02T05:14:10.989Z,100102.84
2023-02-02T05:16:37.359Z,100099.41
2023-02-02T05:19:03.755Z,100102.03
2023-02-02T05:21:30.092Z,100105.56
2023-02-02T05:23:58.147Z,100114.34
2023-02-02T05:26:27.025Z,100120.47
2023-02-02T05:28:53.884Z,100111.78
2023-02-02T05:31:21.055Z,100108.31
2023-02-02T05:33:47.527Z,100112.75
2023-02-02T05:36:14.058Z,100116.28
2023-02-02T05:38:40.403Z,100125.97
2023-02-02T05:41:06.821Z,100119.03
2023-02-02T05:43:33.725Z,100112.16
2023-02-02T05:46:00.670Z,100111.34
2023-02-02T05:48:27.917Z,100115.75
2023-02-02T05:51:02.552Z,100121.09
2023-02-02T05:53:30.797Z,100121.03
2023-02-02T05:55:57.502Z,100120.97
2023-02-02T05:58:24.241Z,100129.72
2023-02-02T06:00:50.591Z,100135.03
2023-02-02T06:03:17.358Z,100131.56
2023-02-02T06:05:43.831Z,100129.88
2023-02-02T06:08:10.351Z,100133.31
2023-02-02T06:10:39.927Z,100136.91
2023-02-02T06:13:06.433Z,100135.94
2023-02-02T06:15:33.079Z,100136.81
2023-02-02T06:18:01.450Z,100135.09
2023-02-02T06:20:28.097Z,100141.22
2023-02-02T06:22:54.493Z,100140.44
2023-02-02T06:25:20.929Z,100136.97
2023-02-02T06:27:49.308Z,100141.38
2023-02-02T06:30:16.143Z,100148.34
2023-02-02T06:32:42.531Z,100149.28
2023-02-02T06:35:09.246Z,100154.56
2023-02-02T06:37:35.622Z,100152.81
2023-02-02T06:40:02.041Z,100153.75
2023-02-02T06:42:28.491Z,100153.84
2023-02-02T06:44:54.875Z,100162.59
2023-02-02T06:47:21.285Z,100169.59
2023-02-02T06:49:47.802Z,100167.09
2023-02-02T06:52:14.218Z,100168.84
2023-02-02T06:54:40.628Z,100173.28
2023-02-02T06:57:06.988Z,100176.78
2023-02-02T06:59:33.345Z,100169.81
2023-02-02T07:01:59.829Z,100174.25
2023-02-02T07:04:26.252Z,100176.88
2023-02-02T07:06:52.616Z,100170.00
2023-02-02T07:09:19.025Z,100172.66
2023-02-02T07:11:45.623Z,100180.53
2023-02-02T07:14:12.257Z,100178.78
2023-02-02T07:16:38.721Z,100177.91
2023-02-02T07:19:05.236Z,100180.53
2023-02-02T07:21:35.989Z,100173.59
2023-02-02T07:24:03.978Z,100180.53
2023-02-02T07:26:30.611Z,100180.53
2023-02-02T07:28:57.177Z,100183.13
2023-02-02T07:31:26.186Z,100191.91
2023-02-02T07:33:53.725Z,100193.59
2023-02-02T07:36:23.383Z,100191.00
2023-02-02T07:38:53.766Z,100193.66
2023-02-02T07:41:20.910Z,100203.16
2023-02-02T07:43:48.451Z,100195.31
2023-02-02T07:46:16.149Z,100197.00
2023-02-02T07:48:42.542Z,100201.41
2023-02-02T07:51:14.768Z,100199.72
2023-02-02T07:53:45.547Z,100210.97
2023-02-02T07:56:17.804Z,100211.84
2023-02-02T07:58:44.267Z,100216.06
2023-02-02T08:01:12.712Z,100214.22
2023-02-02T08:03:39.989Z,100216.78
2023-02-02T08:06:12.555Z,100226.41
2023-02-02T08:08:38.924Z,100219.34
2023-02-02T08:11:07.576Z,100230.63
2023-02-02T08:13:33.949Z,100222.75
2023-02-02T08:16:00.300Z,100228.88
2023-02-02T08:18:26.673Z,100224.47
2023-02-02T08:20:52.996Z,100229.69
2023-02-02T08:23:23.433Z,100232.31
2023-02-02T08:25:50.656Z,100232.31
2023-02-02T08:28:18.103Z,100235.81
2023-02-02T08:30:45.179Z,100229.69
2023-02-02T08:33:11.638Z,100238.38
2023-02-02T08:35:44.410Z,100244.59
2023-02-02T08:38:10.741Z,100245.31
2023-02-02T08:40:37.118Z,100253.16
2023-02-02T08:43:04.256Z,100254.88
2023-02-02T08:46:12.526Z,100254.81
2023-02-02T08:48:19.716Z,100261.72
2023-02-02T08:50:52.170Z,100258.25
2023-02-02T08:53:18.540Z,100260.69
2023-02-02T08:55:44.900Z,100272.81
2023-02-02T08:58:11.252Z,100274.50
2023-02-02T09:00:37.698Z,100276.06
2023-02-02T09:03:04.479Z,100281.25
2023-02-02T09:05:30.790Z,100281.16
2023-02-02T09:07:57.205Z,100281.97
2023-02-02T09:10:23.845Z,100292.31
2023-02-02T09:12:50.141Z,100291.34
2023-02-02T09:15:16.585Z,100295.72
2023-02-02T09:17:42.939Z,100296.50
2023-02-02T09:20:09.889Z,100301.69
2023-02-02T09:22:36.235Z,100307.72
2023-02-02T09:25:02.668Z,100305.91
2023-02-02T09:27:29.015Z,100309.38
2023-02-02T09:29:55.367Z,100318.03
2023-02-02T09:32:21.727Z,100315.31
2023-02-02T09:34:48.127Z,100318.78
2023-02-02T09:37:14.516Z,100319.59
2023-02-02T09:39:40.879Z,100319.47
2023-02-02T09:42:19.307Z,100325.56
2023-02-02T09:44:54.200Z,100326.25
2023-02-02T09:47:46.338Z,100328.88
2023-02-02T09:50:22.819Z,100337.53
2023-02-02T09:52:58.175Z,100341.81
2023-02-02T09:55:38.019Z,100340.06
2023-02-02T09:58:18.529Z,100346.97
2023-02-02T10:01:22.867Z,100358.28
2023-02-02T10:04:07.737Z,100358.19
2023-02-02T10:06:43.650Z,100363.31
2023-02-02T10:09:26.044Z,100365.03
2023-02-02T10:12:20.167Z,100371.03
2023-02-02T10:15:14.312Z,100375.41
2023-02-02T10:17:57.439Z,100377.88
2023-02-02T10:21:05.797Z,100383.03
2023-02-02T10:23:47.138Z,100389.88
2023-02-02T10:26:20.352Z,100388.03
2023-02-02T10:28:58.291Z,100395.06
2023-02-02T10:32:22.352Z,100402.84
2023-02-02T10:35:13.453Z,100397.41
2023-02-02T10:37:51.242Z,100400.84
2023-02-02T10:40:26.937Z,100394.72
2023-02-02T10:43:31.016Z,100390.19
2023-02-02T10:45:58.938Z,100391.13
2023-02-02T10:48:35.405Z,100397.28
2023-02-02T10:51:11.188Z,100403.31
2023-02-02T10:56:43.001Z,100396.25
2023-02-02T10:59:32.283Z,100397.03
2023-02-02T11:02:08.662Z,100396.84
2023-02-02T11:05:00.623Z,100396.69
2023-02-02T11:07:26.993Z,100399.25
2023-02-02T11:09:53.584Z,100394.00
2023-02-02T11:12:32.363Z,100397.53
2023-02-02T11:15:07.380Z,100397.44
2023-02-02T11:17:34.764Z,100405.16
2023-02-02T11:20:01.574Z,100406.91
2023-02-02T11:22:38.366Z,100410.41
2023-02-02T11:25:07.362Z,100399.84
2023-02-02T11:27:42.428Z,100413.91
2023-02-02T11:30:25.677Z,100408.59
2023-02-02T11:32:52.617Z,100413.75
2023-02-02T11:35:24.728Z,100414.63
2023-02-02T11:38:14.471Z,100423.44
2023-02-02T11:41:11.008Z,100414.63
2023-02-02T11:43:44.530Z,100414.47
2023-02-02T11:46:22.257Z,100421.47
2023-02-02T11:49:01.921Z,100422.34
2023-02-02T11:51:30.671Z,100418.78
2023-02-02T11:54:17.560Z,100420.63
2023-02-02T11:56:51.761Z,100417.94
2023-02-02T11:59:37.491Z,100424.09
2023-02-02T12:02:13.497Z,100418.78
2023-02-02T12:04:40.614Z,100425.69
2023-02-02T12:07:31.802Z,100418.84
2023-02-02T12:10:01.622Z,100423.19
2023-02-02T12:13:08.321Z,100415.50
2023-02-02T12:16:19.817Z,100427.75
2023-02-02T12:18:49.231Z,100417.16
2023-02-02T12:21:26.255Z,100424.25
2023-02-02T12:24:04.558Z,100419.78
2023-02-02T12:26:34.442Z,100418.00
2023-02-02T12:29:07.163Z,100419.78
2023-02-02T12:32:14.929Z,100419.66
2023-02-02T12:34:50.145Z,100415.19
2023-02-02T12:37:54.348Z,100412.69
2023-02-02T12:40:49.946Z,100416.06
2023-02-02T12:43:37.149Z,100418.63
2023-02-02T12:46:18.805Z,100421.25
2023-02-02T12:48:54.435Z,100409.88
2023-02-02T12:51:39.503Z,100418.63
2023-02-02T12:54:34.761Z,100409.84
2023-02-02T12:57:32.717Z,100416.78
2023-02-02T13:00:17.462Z,100423.75
2023-02-02T13:03:17.685Z,100413.38
2023-02-02T13:06:05.362Z,100417.81
2023-02-02T13:08:57.912Z,100416.16
2023-02-02T13:11:42.301Z,100419.72
2023-02-02T13:14:28.569Z,100411.84
2023-02-02T13:17:00.905Z,100418.78
2023-02-02T13:19:46.255Z,100419.81
2023-02-02T13:22:17.778Z,100423.31
2023-02-02T13:24:47.917Z,100422.50
2023-02-02T13:27:19.069Z,100409.53
2023-02-02T13:30:17.863Z,100413.22
2023-02-02T13:32:46.743Z,100417.59
2023-02-02T13:35:19.925Z,100421.22
2023-02-02T13:38:12.431Z,100418.03
2023-02-02T13:40:41.147Z,100418.91
2023-02-02T13:43:39.831Z,100413.94
2023-02-02T13:46:21.340Z,100415.75
2023-02-02T13:48:56.869Z,100418.38
2023-02-02T13:51:31.958Z,100415.88
2023-02-02T13:54:28.549Z,100420.47
2023-02-02T13:57:37.506Z,100421.50
2023-02-02T14:00:13.611Z,100423.38
2023-02-02T14:02:43.897Z,100423.44
2023-02-02T14:05:24.599Z,100427.22
2023-02-02T14:08:07.227Z,100426.44
2023-02-02T14:11:07.729Z,100423.13
2023-02-02T14:14:02.138Z,100418.81
2023-02-02T14:16:31.242Z,100426.78
2023-02-02T14:19:01.882Z,100435.56
2023-02-02T14:21:34.120Z,100431.28
2023-02-02T14:24:29.063Z,100439.19
2023-02-02T14:27:23.239Z,100441.63
2023-02-02T14:29:50.158Z,100437.94
2023-02-02T14:32:28.649Z,100438.00
2023-02-02T14:34:58.023Z,100445.75
2023-02-02T14:37:24.437Z,100451.00
2023-02-02T14:40:06.125Z,100447.66
2023-02-02T14:42:51.964Z,100445.81
2023-02-02T14:45:33.242Z,100437.25
2023-02-02T14:48:16.257Z,100443.41
2023-02-02T14:50:52.719Z,100441.72
2023-02-02T14:53:28.557Z,100436.47
2023-02-02T14:56:08.881Z,100440.81
2023-02-02T14:59:00.180Z,100440.22
2023-02-02T15:01:31.264Z,100439.28
2023-02-02T15:04:00.773Z,100444.72
2023-02-02T15:06:31.486Z,100444.81
2023-02-02T15:09:19.857Z,100446.78
2023-02-02T15:12:02.126Z,100459.06
2023-02-02T15:15:02.373Z,100464.34
2023-02-02T15:17:48.910Z,100457.44
2023-02-02T15:20:28.566Z,100461.84
2023-02-02T15:23:04.229Z,100462.81
2023-02-02T15:25:36.819Z,100460.25
2023-02-02T15:28:15.857Z,100460.38
2023-02-02T15:30:45.145Z,100464.78
2023-02-02T15:33:23.257Z,100464.19
2023-02-02T15:35:50.510Z,100458.94
2023-02-02T15:38:20.310Z,100463.41
2023-02-02T15:40:46.893Z,100459.16
2023-02-02T15:43:14.703Z,100467.16
2023-02-02T15:45:43.693Z,100460.28
2023-02-02T15:48:30.981Z,100463.03
2023-02-02T15:51:00.670Z,100461.28
2023-02-02T15:53:32.904Z,100469.19
2023-02-02T15:56:00.372Z,100471.84
2023-02-02T15:58:29.272Z,100474.50
2023-02-02T16:00:58.346Z,100469.31
2023-02-02T16:03:46.756Z,100475.50
2023-02-02T16:06:13.305Z,100478.84
2023-02-02T16:08:41.926Z,100473.69
2023-02-02T16:11:21.971Z,100470.19
2023-02-02T16:14:04.003Z,100473.75
2023-02-02T16:16:36.438Z,100478.97
2023-02-02T16:19:08.878Z,100480.75
2023-02-02T16:21:40.783Z,100481.63
2023-02-02T16:24:17.458Z,100487.78
2023-02-02T16:26:44.224Z,100495.59
2023-02-02T16:29:17.404Z,100479.03
2023-02-02T16:31:48.853Z,100483.31
2023-02-02T16:34:38.928Z,100498.25
2023-02-02T16:37:27.398Z,100495.59
2023-02-02T16:39:55.757Z,100497.13
2023-02-02T16:42:25.678Z,100505.81
2023-02-02T16:44:52.540Z,100497.03
2023-02-02T16:47:26.504Z,100499.66
2023-02-02T16:49:54.673Z,100496.00
2023-02-02T16:52:22.397Z,100488.09
2023-02-02T16:57:33.104Z,100485.44
2023-02-02T17:00:22.297Z,100492.34
2023-02-02T17:02:52.572Z,100494.84
2023-02-02T17:05:27.916Z,100494.00
2023-02-02T17:08:05.508Z,100495.66
2023-02-02T17:10:39.658Z,100495.50
2023-02-02T17:13:39.719Z,100501.50
2023-02-02T17:16:06.424Z,100488.19
2023-02-02T17:18:32.906Z,100497.66
2023-02-02T17:21:04.169Z,100506.22
2023-02-02T17:23:32.378Z,100497.31
2023-02-02T17:25:59.353Z,100494.50
2023-02-02T17:28:27.177Z,100496.03
2023-02-02T17:31:01.438Z,100508.13
2023-02-02T17:33:28.350Z,100499.16
2023-02-02T17:35:56.444Z,100492.91
2023-02-02T17:38:24.814Z,100500.63
2023-02-02T17:40:51.634Z,100498.69
2023-02-02T17:43:18.115Z,100499.44
2023-02-02T17:45:44.623Z,100493.19
2023-02-02T17:48:12.763Z,100486.97
2023-02-02T17:50:40.685Z,100494.63
2023-02-02T17:53:11.528Z,100491.03
2023-02-02T17:55:40.531Z,100487.41
2023-02-02T17:58:07.005Z,100495.09
2023-02-02T18:00:33.991Z,100489.69
2023-02-02T18:03:10.337Z,100486.09
2023-02-02T18:05:42.075Z,100488.47
2023-02-02T18:08:11.400Z,100489.28
2023-02-02T18:10:38.320Z,100480.38
2023-02-02T18:13:05.796Z,100487.16
2023-02-02T18:15:32.637Z,100491.41
2023-02-02T18:18:01.377Z,100491.25
2023-02-02T18:20:28.015Z,100492.00
2023-02-02T18:22:54.436Z,100487.50
2023-02-02T18:25:20.907Z,100486.47
2023-02-02T18:27:49.075Z,100485.50
2023-02-02T18:30:15.712Z,100489.72
2023-02-02T18:32:43.105Z,100483.50
2023-02-02T18:35:11.681Z,100488.63
2023-02-02T18:37:39.186Z,100492.91
2023-02-02T18:40:07.819Z,100485.81
2023-02-02T18:42:35.194Z,100477.00
2023-02-02T18:45:02.083Z,100484.00
2023-02-02T18:47:28.691Z,100477.78
2023-02-02T18:49:55.366Z,100480.34
2023-02-02T18:52:21.845Z,100479.47
2023-02-02T18:54:48.741Z,100476.72
2023-02-02T18:57:15.818Z,100487.16
2023-02-02T18:59:43.361Z,100487.09
2023-02-02T19:02:18.147Z,100486.31
2023-02-02T19:05:03.905Z,100487.91
2023-02-02T19:07:51.809Z,100480.94
2023-02-02T19:10:19.095Z,100476.47
2023-02-02T19:12:56.185Z,100480.09
2023-02-02T19:15:23.231Z,100486.00
2023-02-02T19:17:52.863Z,100491.25
2023-02-02T19:20:25.441Z,100491.25
2023-02-02T19:22:59.540Z,100487.66
2023-02-02T19:25:26.249Z,100483.16
2023-02-02T19:27:52.718Z,100490.94
2023-02-02T19:30:22.035Z,100493.56
2023-02-02T19:32:49.003Z,100490.00
2023-02-02T19:35:21.454Z,100487.44
2023-02-02T19:37:49.347Z,100484.59
2023-02-02T19:40:19.950Z,100493.34
2023-02-02T19:43:08.325Z,100495.00
2023-02-02T19:45:35.695Z,100491.44
2023-02-02T19:48:14.056Z,100487.06
2023-02-02T19:50:43.323Z,100491.31
2023-02-02T19:53:37.839Z,100480.94
2023-02-02T19:56:24.573Z,100484.38
2023-02-02T19:58:51.039Z,100482.34
2023-02-02T20:01:20.832Z,100486.72
2023-02-02T20:03:47.728Z,100485.81
2023-02-02T20:06:24.642Z,100491.06
2023-02-02T20:08:51.380Z,100485.69
2023-02-02T20:11:23.944Z,100489.19
2023-02-02T20:13:51.524Z,100490.94
2023-02-02T20:16:23.222Z,100485.75
2023-02-02T20:18:55.224Z,100482.19
2023-02-02T20:21:30.939Z,100481.25
2023-02-02T20:23:57.554Z,100480.38
2023-02-02T20:26:28.412Z,100482.13
2023-02-02T20:28:57.523Z,100487.41
2023-02-02T20:31:28.876Z,100480.31
2023-02-02T20:33:57.515Z,100477.63
2023-02-02T20:36:40.177Z,100476.00
2023-02-02T20:39:21.992Z,100474.19
2023-02-02T20:41:48.658Z,100473.22
2023-02-02T20:44:15.069Z,100472.28
2023-02-02T20:46:41.451Z,100470.59
2023-02-02T20:49:07.901Z,100481.91
2023-02-02T20:51:34.479Z,100473.16
2023-02-02T20:54:01.146Z,100485.38
2023-02-02T20:56:27.533Z,100473.09
2023-02-02T20:58:53.879Z,100471.41
2023-02-02T21:01:23.245Z,100474.84
2023-02-02T21:03:49.680Z,100473.97
2023-02-02T21:06:19.469Z,100481.84
2023-02-02T21:08:47.563Z,100482.69
2023-02-02T21:11:13.955Z,100484.38
2023-02-02T21:13:40.317Z,100479.22
2023-02-02T21:16:07.048Z,100478.34
2023-02-02T21:18:33.484Z,100484.47
2023-02-02T21:20:59.939Z,100480.06
2023-02-02T21:23:26.362Z,100480.06
2023-02-02T21:25:52.739Z,100488.81
2023-02-02T21:28:19.139Z,100487.94
2023-02-02T21:30:45.772Z,100481.84
2023-02-02T21:33:12.300Z,100473.09
2023-02-02T21:35:38.645Z,100481.75
2023-02-02T21:38:12.950Z,100478.34
2023-02-02T21:40:40.212Z,100472.13
2023-02-02T21:43:17.167Z,100481.84
2023-02-02T21:45:47.428Z,100480.00
2023-02-02T21:48:19.624Z,100476.50
2023-02-02T21:50:46.888Z,100484.31
2023-02-02T21:53:13.625Z,100477.31
2023-02-02T21:55:40.630Z,100479.00
2023-02-02T21:58:22.259Z,100471.25
2023-02-02T22:00:57.807Z,100468.50
2023-02-02T22:03:33.139Z,100456.28
2023-02-02T22:06:13.661Z,100467.44
2023-02-02T22:08:40.102Z,100466.47
2023-02-02T22:11:24.866Z,100466.69
2023-02-02T22:13:52.623Z,100454.25
2023-02-02T22:16:22.722Z,100458.56
2023-02-02T22:18:49.225Z,100448.00
2023-02-02T22:21:20.605Z,100425.34
2023-02-02T22:23:47.419Z,100413.06
2023-02-02T22:26:31.228Z,100429.88
2023-02-02T22:28:57.668Z,100439.34
2023-02-02T22:31:24.209Z,100431.56
2023-02-02T22:33:50.691Z,100445.50
2023-02-02T22:36:17.035Z,100439.34
2023-02-02T22:38:43.335Z,100458.56
2023-02-02T22:41:09.824Z,100463.84
2023-02-02T22:43:36.264Z,100458.53
2023-02-02T22:46:02.751Z,100466.34
2023-02-02T22:48:29.339Z,100465.41
2023-02-02T22:50:55.777Z,100451.34
2023-02-02T22:53:22.323Z,100445.25
2023-02-02T22:55:57.572Z,100432.03
2023-02-02T22:58:31.216Z,100435.50
2023-02-02T23:01:18.320Z,100437.38
2023-02-02T23:03:49.757Z,100434.47
2023-02-02T23:06:24.714Z,100428.44
2023-02-02T23:08:55.501Z,100424.88
2023-02-02T23:11:22.053Z,100410.03
2023-02-02T23:13:53.328Z,100423.16
2023-02-02T23:16:25.057Z,100422.25
2023-02-02T23:18:51.638Z,100414.34
2023-02-02T23:21:20.453Z,100412.59
2023-02-02T23:23:47.218Z,100395.03
2023-02-02T23:26:13.793Z,100391.63
2023-02-02T23:28:40.442Z,100384.56
2023-02-02T23:31:08.118Z,100385.50
2023-02-02T23:33:36.929Z,100397.72
2023-02-02T23:36:03.804Z,100383.66
2023-02-02T23:38:30.368Z,100368.78
2023-02-02T23:40:59.145Z,100371.34
2023-02-02T23:43:25.824Z,100382.81
2023-02-02T23:45:52.679Z,100375.69
2023-02-02T23:48:19.930Z,100376.63
2023-02-02T23:50:47.001Z,100383.50
2023-02-02T23:53:14.778Z,100373.06
2023-02-02T23:55:43.128Z,100380.94
2023-02-02T23:58:10.839Z,100375.63
